sensor_id;sensor_type;location;lat;lon;timestamp;temperature;humidity
42099;DHT22;27758;55.900;8.516;2023-07-30T00:01:55;15.00;99.90
42099;DHT22;27758;55.900;8.516;2023-07-30T00:04:23;15.10;99.90
42099;DHT22;27758;55.900;8.516;2023-07-30T00:06:49;15.00;99.90
42099;DHT22;27758;55.900;8.516;2023-07-30T00:09:14;15.00;99.90
42099;DHT22;27758;55.900;8.516;2023-07-30T00:11:40;14.90;99.90
42099;DHT22;27758;55.900;8.516;2023-07-30T00:14:06;14.90;99.90
42099;DHT22;27758;55.900;8.516;2023-07-30T00:16:31;14.90;99.90
42099;DHT22;27758;55.900;8.516;2023-07-30T00:18:57;14.90;99.90
42099;DHT22;27758;55.900;8.516;2023-07-30T00:21:23;14.80;99.90
42099;DHT22;27758;55.900;8.516;2023-07-30T00:23:48;14.80;99.90
42099;DHT22;27758;55.900;8.516;2023-07-30T00:26:14;14.80;99.90
42099;DHT22;27758;55.900;8.516;2023-07-30T00:28:40;14.70;99.90
42099;DHT22;27758;55.900;8.516;2023-07-30T00:31:06;14.70;99.90
42099;DHT22;27758;55.900;8.516;2023-07-30T00:33:31;14.60;99.90
42099;DHT22;27758;55.900;8.516;2023-07-30T00:35:57;14.60;99.90
42099;DHT22;27758;55.900;8.516;2023-07-30T00:38:23;14.50;99.90
42099;DHT22;27758;55.900;8.516;2023-07-30T00:40:49;14.50;99.90
42099;DHT22;27758;55.900;8.516;2023-07-30T00:43:15;14.40;99.90
42099;DHT22;27758;55.900;8.516;2023-07-30T00:45:43;14.40;99.90
42099;DHT22;27758;55.900;8.516;2023-07-30T00:48:13;14.40;99.90
42099;DHT22;27758;55.900;8.516;2023-07-30T00:50:40;14.30;99.90
42099;DHT22;27758;55.900;8.516;2023-07-30T00:53:07;14.20;99.90
42099;DHT22;27758;55.900;8.516;2023-07-30T00:55:34;14.20;99.90
42099;DHT22;27758;55.900;8.516;2023-07-30T00:58:01;14.20;99.90
42099;DHT22;27758;55.900;8.516;2023-07-30T01:00:27;14.10;99.90
42099;DHT22;27758;55.900;8.516;2023-07-30T01:02:55;14.10;99.90
42099;DHT22;27758;55.900;8.516;2023-07-30T01:05:21;14.00;99.90
42099;DHT22;27758;55.900;8.516;2023-07-30T01:07:47;14.00;99.90
42099;DHT22;27758;55.900;8.516;2023-07-30T01:10:13;14.00;99.90
42099;DHT22;27758;55.900;8.516;2023-07-30T01:12:39;14.00;99.90
42099;DHT22;27758;55.900;8.516;2023-07-30T01:15:07;14.10;99.90
42099;DHT22;27758;55.900;8.516;2023-07-30T01:17:33;14.10;99.90
42099;DHT22;27758;55.900;8.516;2023-07-30T01:19:59;14.10;99.90
42099;DHT22;27758;55.900;8.516;2023-07-30T01:22:25;14.10;99.90
42099;DHT22;27758;55.900;8.516;2023-07-30T01:24:50;14.20;99.90
42099;DHT22;27758;55.900;8.516;2023-07-30T01:27:25;14.10;99.90
42099;DHT22;27758;55.900;8.516;2023-07-30T01:29:53;14.00;99.90
42099;DHT22;27758;55.900;8.516;2023-07-30T01:32:24;14.00;99.90
42099;DHT22;27758;55.900;8.516;2023-07-30T01:34:52;14.00;99.90
42099;DHT22;27758;55.900;8.516;2023-07-30T01:37:19;14.00;99.90
42099;DHT22;27758;55.900;8.516;2023-07-30T01:39:48;13.90;99.90
42099;DHT22;27758;55.900;8.516;2023-07-30T01:42:14;13.90;99.90
42099;DHT22;27758;55.900;8.516;2023-07-30T01:44:40;13.90;99.90
42099;DHT22;27758;55.900;8.516;2023-07-30T01:47:06;14.00;99.90
42099;DHT22;27758;55.900;8.516;2023-07-30T01:49:31;14.00;99.90
42099;DHT22;27758;55.900;8.516;2023-07-30T01:51:57;14.00;99.90
42099;DHT22;27758;55.900;8.516;2023-07-30T01:54:23;14.10;99.90
42099;DHT22;27758;55.900;8.516;2023-07-30T01:56:48;14.10;99.90
42099;DHT22;27758;55.900;8.516;2023-07-30T01:59:14;14.10;99.90
42099;DHT22;27758;55.900;8.516;2023-07-30T02:01:41;14.10;99.90
42099;DHT22;27758;55.900;8.516;2023-07-30T02:04:06;14.10;99.90
42099;DHT22;27758;55.900;8.516;2023-07-30T02:06:32;14.20;99.90
42099;DHT22;27758;55.900;8.516;2023-07-30T02:08:58;14.20;99.90
42099;DHT22;27758;55.900;8.516;2023-07-30T02:11:24;14.20;99.90
42099;DHT22;27758;55.900;8.516;2023-07-30T02:13:49;14.20;99.90
42099;DHT22;27758;55.900;8.516;2023-07-30T02:16:15;14.20;99.90
42099;DHT22;27758;55.900;8.516;2023-07-30T02:18:41;14.20;99.90
42099;DHT22;27758;55.900;8.516;2023-07-30T02:21:06;14.30;99.90
42099;DHT22;27758;55.900;8.516;2023-07-30T02:23:32;14.30;99.90
42099;DHT22;27758;55.900;8.516;2023-07-30T02:25:58;14.30;99.90
42099;DHT22;27758;55.900;8.516;2023-07-30T02:28:23;14.30;99.90
42099;DHT22;27758;55.900;8.516;2023-07-30T02:30:49;14.30;99.90
42099;DHT22;27758;55.900;8.516;2023-07-30T02:33:15;14.30;99.90
42099;DHT22;27758;55.900;8.516;2023-07-30T02:35:43;14.30;99.90
42099;DHT22;27758;55.900;8.516;2023-07-30T02:38:08;14.30;99.90
42099;DHT22;27758;55.900;8.516;2023-07-30T02:40:34;14.40;99.90
42099;DHT22;27758;55.900;8.516;2023-07-30T02:43:00;14.40;99.90
42099;DHT22;27758;55.900;8.516;2023-07-30T02:45:25;14.40;99.90
42099;DHT22;27758;55.900;8.516;2023-07-30T02:47:51;14.50;99.90
42099;DHT22;27758;55.900;8.516;2023-07-30T02:50:17;14.40;99.90
42099;DHT22;27758;55.900;8.516;2023-07-30T02:52:43;14.40;99.90
42099;DHT22;27758;55.900;8.516;2023-07-30T02:55:08;14.50;99.90
42099;DHT22;27758;55.900;8.516;2023-07-30T02:57:34;14.50;99.90
42099;DHT22;27758;55.900;8.516;2023-07-30T03:00:00;14.60;99.90
42099;DHT22;27758;55.900;8.516;2023-07-30T03:02:25;14.60;99.90
42099;DHT22;27758;55.900;8.516;2023-07-30T03:04:51;14.50;99.90
42099;DHT22;27758;55.900;8.516;2023-07-30T03:07:17;14.50;99.90
42099;DHT22;27758;55.900;8.516;2023-07-30T03:09:43;14.50;99.90
42099;DHT22;27758;55.900;8.516;2023-07-30T03:12:09;14.60;99.90
42099;DHT22;27758;55.900;8.516;2023-07-30T03:14:35;14.60;99.90
42099;DHT22;27758;55.900;8.516;2023-07-30T03:17:01;14.60;99.90
42099;DHT22;27758;55.900;8.516;2023-07-30T03:19:26;14.50;99.90
42099;DHT22;27758;55.900;8.516;2023-07-30T03:21:52;14.50;99.90
42099;DHT22;27758;55.900;8.516;2023-07-30T03:24:18;14.50;99.90
42099;DHT22;27758;55.900;8.516;2023-07-30T03:26:43;14.40;99.90
42099;DHT22;27758;55.900;8.516;2023-07-30T03:29:09;14.50;99.90
42099;DHT22;27758;55.900;8.516;2023-07-30T03:31:35;14.50;99.90
42099;DHT22;27758;55.900;8.516;2023-07-30T03:34:00;14.50;99.90
42099;DHT22;27758;55.900;8.516;2023-07-30T03:36:26;14.50;99.90
42099;DHT22;27758;55.900;8.516;2023-07-30T03:38:52;14.50;99.90
42099;DHT22;27758;55.900;8.516;2023-07-30T03:41:17;14.60;99.90
42099;DHT22;27758;55.900;8.516;2023-07-30T03:43:43;14.60;99.90
42099;DHT22;27758;55.900;8.516;2023-07-30T03:46:09;14.60;99.90
42099;DHT22;27758;55.900;8.516;2023-07-30T03:48:34;14.70;99.90
42099;DHT22;27758;55.900;8.516;2023-07-30T03:51:00;14.70;99.90
42099;DHT22;27758;55.900;8.516;2023-07-30T03:53:26;14.80;99.90
42099;DHT22;27758;55.900;8.516;2023-07-30T03:55:51;14.80;99.90
42099;DHT22;27758;55.900;8.516;2023-07-30T03:58:17;14.80;99.90
42099;DHT22;27758;55.900;8.516;2023-07-30T04:00:43;14.80;99.90
42099;DHT22;27758;55.900;8.516;2023-07-30T04:03:08;14.80;99.90
42099;DHT22;27758;55.900;8.516;2023-07-30T04:05:34;14.90;99.90
42099;DHT22;27758;55.900;8.516;2023-07-30T04:08:00;14.90;99.90
42099;DHT22;27758;55.900;8.516;2023-07-30T04:10:25;14.90;99.90
42099;DHT22;27758;55.900;8.516;2023-07-30T04:12:51;14.90;99.90
42099;DHT22;27758;55.900;8.516;2023-07-30T04:15:17;14.90;99.90
42099;DHT22;27758;55.900;8.516;2023-07-30T04:17:43;14.90;99.90
42099;DHT22;27758;55.900;8.516;2023-07-30T04:20:09;14.90;99.90
42099;DHT22;27758;55.900;8.516;2023-07-30T04:22:38;14.90;99.90
42099;DHT22;27758;55.900;8.516;2023-07-30T04:25:07;15.00;99.90
42099;DHT22;27758;55.900;8.516;2023-07-30T04:27:33;15.00;99.90
42099;DHT22;27758;55.900;8.516;2023-07-30T04:29:59;15.10;99.90
42099;DHT22;27758;55.900;8.516;2023-07-30T04:32:25;15.20;99.90
42099;DHT22;27758;55.900;8.516;2023-07-30T04:34:50;15.30;99.90
42099;DHT22;27758;55.900;8.516;2023-07-30T04:37:16;15.30;99.90
42099;DHT22;27758;55.900;8.516;2023-07-30T04:39:42;15.40;99.90
42099;DHT22;27758;55.900;8.516;2023-07-30T04:42:07;15.30;99.90
42099;DHT22;27758;55.900;8.516;2023-07-30T04:44:33;15.40;99.90
42099;DHT22;27758;55.900;8.516;2023-07-30T04:46:59;15.50;99.90
42099;DHT22;27758;55.900;8.516;2023-07-30T04:49:24;15.60;99.90
42099;DHT22;27758;55.900;8.516;2023-07-30T04:51:50;15.60;99.90
42099;DHT22;27758;55.900;8.516;2023-07-30T04:54:16;15.60;99.90
42099;DHT22;27758;55.900;8.516;2023-07-30T04:56:41;15.70;99.90
42099;DHT22;27758;55.900;8.516;2023-07-30T04:59:07;15.70;99.90
42099;DHT22;27758;55.900;8.516;2023-07-30T05:01:33;15.70;99.90
42099;DHT22;27758;55.900;8.516;2023-07-30T05:03:58;15.80;99.90
42099;DHT22;27758;55.900;8.516;2023-07-30T05:06:24;15.90;99.90
42099;DHT22;27758;55.900;8.516;2023-07-30T05:08:50;15.90;99.90
42099;DHT22;27758;55.900;8.516;2023-07-30T05:11:15;16.00;99.90
42099;DHT22;27758;55.900;8.516;2023-07-30T05:13:41;16.00;99.90
42099;DHT22;27758;55.900;8.516;2023-07-30T05:16:07;16.10;99.90
42099;DHT22;27758;55.900;8.516;2023-07-30T05:18:32;16.20;99.90
42099;DHT22;27758;55.900;8.516;2023-07-30T05:20:58;16.30;99.90
42099;DHT22;27758;55.900;8.516;2023-07-30T05:23:24;16.40;99.90
42099;DHT22;27758;55.900;8.516;2023-07-30T05:25:49;16.40;99.90
42099;DHT22;27758;55.900;8.516;2023-07-30T05:28:15;16.50;99.90
42099;DHT22;27758;55.900;8.516;2023-07-30T05:30:41;16.60;99.90
42099;DHT22;27758;55.900;8.516;2023-07-30T05:33:07;16.70;99.90
42099;DHT22;27758;55.900;8.516;2023-07-30T05:35:32;16.80;99.90
42099;DHT22;27758;55.900;8.516;2023-07-30T05:37:58;16.90;99.90
42099;DHT22;27758;55.900;8.516;2023-07-30T05:40:24;17.00;99.90
42099;DHT22;27758;55.900;8.516;2023-07-30T05:42:49;17.10;99.90
42099;DHT22;27758;55.900;8.516;2023-07-30T05:45:15;17.20;99.90
42099;DHT22;27758;55.900;8.516;2023-07-30T05:47:41;17.30;99.90
42099;DHT22;27758;55.900;8.516;2023-07-30T05:50:07;17.40;99.90
42099;DHT22;27758;55.900;8.516;2023-07-30T05:52:33;17.40;99.90
42099;DHT22;27758;55.900;8.516;2023-07-30T05:54:59;17.40;99.90
42099;DHT22;27758;55.900;8.516;2023-07-30T05:57:25;17.50;99.90
42099;DHT22;27758;55.900;8.516;2023-07-30T05:59:53;17.60;99.90
42099;DHT22;27758;55.900;8.516;2023-07-30T06:02:18;17.80;99.90
42099;DHT22;27758;55.900;8.516;2023-07-30T06:04:44;18.00;99.90
42099;DHT22;27758;55.900;8.516;2023-07-30T06:07:10;18.00;99.90
42099;DHT22;27758;55.900;8.516;2023-07-30T06:09:36;18.20;99.90
42099;DHT22;27758;55.900;8.516;2023-07-30T06:12:02;18.40;99.90
42099;DHT22;27758;55.900;8.516;2023-07-30T06:14:28;18.40;99.90
42099;DHT22;27758;55.900;8.516;2023-07-30T06:16:54;18.60;99.90
42099;DHT22;27758;55.900;8.516;2023-07-30T06:19:20;18.70;99.90
42099;DHT22;27758;55.900;8.516;2023-07-30T06:21:46;18.80;99.90
42099;DHT22;27758;55.900;8.516;2023-07-30T06:24:12;19.00;99.90
42099;DHT22;27758;55.900;8.516;2023-07-30T06:26:37;19.00;99.90
42099;DHT22;27758;55.900;8.516;2023-07-30T06:29:03;19.20;99.90
42099;DHT22;27758;55.900;8.516;2023-07-30T06:31:29;19.00;99.90
42099;DHT22;27758;55.900;8.516;2023-07-30T06:33:55;18.80;99.90
42099;DHT22;27758;55.900;8.516;2023-07-30T06:36:21;18.70;99.90
42099;DHT22;27758;55.900;8.516;2023-07-30T06:38:47;18.60;99.90
42099;DHT22;27758;55.900;8.516;2023-07-30T06:41:13;18.70;99.90
42099;DHT22;27758;55.900;8.516;2023-07-30T06:43:40;18.80;99.90
42099;DHT22;27758;55.900;8.516;2023-07-30T06:46:06;19.10;99.90
42099;DHT22;27758;55.900;8.516;2023-07-30T06:48:31;19.20;99.90
42099;DHT22;27758;55.900;8.516;2023-07-30T06:50:57;19.20;99.90
42099;DHT22;27758;55.900;8.516;2023-07-30T06:53:23;19.40;99.90
42099;DHT22;27758;55.900;8.516;2023-07-30T06:55:48;19.40;99.90
42099;DHT22;27758;55.900;8.516;2023-07-30T06:58:14;19.40;99.90
42099;DHT22;27758;55.900;8.516;2023-07-30T07:00:40;19.20;99.90
42099;DHT22;27758;55.900;8.516;2023-07-30T07:03:06;19.40;99.90
42099;DHT22;27758;55.900;8.516;2023-07-30T07:05:31;19.50;99.90
42099;DHT22;27758;55.900;8.516;2023-07-30T07:07:57;19.50;99.90
42099;DHT22;27758;55.900;8.516;2023-07-30T07:10:23;19.60;99.90
42099;DHT22;27758;55.900;8.516;2023-07-30T07:12:48;19.50;99.90
42099;DHT22;27758;55.900;8.516;2023-07-30T07:15:15;19.60;99.90
42099;DHT22;27758;55.900;8.516;2023-07-30T07:17:41;19.50;99.90
42099;DHT22;27758;55.900;8.516;2023-07-30T07:20:07;19.40;99.90
42099;DHT22;27758;55.900;8.516;2023-07-30T07:22:33;19.40;99.90
42099;DHT22;27758;55.900;8.516;2023-07-30T07:24:59;19.70;99.90
42099;DHT22;27758;55.900;8.516;2023-07-30T07:27:25;20.10;99.90
42099;DHT22;27758;55.900;8.516;2023-07-30T07:29:51;20.20;99.90
42099;DHT22;27758;55.900;8.516;2023-07-30T07:32:18;20.30;99.90
42099;DHT22;27758;55.900;8.516;2023-07-30T07:34:50;20.50;99.90
42099;DHT22;27758;55.900;8.516;2023-07-30T07:37:15;20.70;99.90
42099;DHT22;27758;55.900;8.516;2023-07-30T07:39:45;20.60;99.90
42099;DHT22;27758;55.900;8.516;2023-07-30T07:42:11;20.70;99.90
42099;DHT22;27758;55.900;8.516;2023-07-30T07:44:37;20.50;99.90
42099;DHT22;27758;55.900;8.516;2023-07-30T07:47:03;20.20;99.90
42099;DHT22;27758;55.900;8.516;2023-07-30T07:49:29;20.20;99.90
42099;DHT22;27758;55.900;8.516;2023-07-30T07:51:55;20.30;99.90
42099;DHT22;27758;55.900;8.516;2023-07-30T07:54:21;20.30;99.90
42099;DHT22;27758;55.900;8.516;2023-07-30T07:56:47;20.50;99.90
42099;DHT22;27758;55.900;8.516;2023-07-30T07:59:13;20.70;99.90
42099;DHT22;27758;55.900;8.516;2023-07-30T08:01:38;20.90;99.90
42099;DHT22;27758;55.900;8.516;2023-07-30T08:04:04;21.20;99.90
42099;DHT22;27758;55.900;8.516;2023-07-30T08:06:32;21.40;99.90
42099;DHT22;27758;55.900;8.516;2023-07-30T08:08:57;21.50;99.90
42099;DHT22;27758;55.900;8.516;2023-07-30T08:11:23;21.40;99.90
42099;DHT22;27758;55.900;8.516;2023-07-30T08:13:49;21.00;99.90
42099;DHT22;27758;55.900;8.516;2023-07-30T08:16:15;20.80;99.90
42099;DHT22;27758;55.900;8.516;2023-07-30T08:18:40;20.70;99.90
42099;DHT22;27758;55.900;8.516;2023-07-30T08:21:06;20.70;99.90
42099;DHT22;27758;55.900;8.516;2023-07-30T08:23:32;21.00;99.90
42099;DHT22;27758;55.900;8.516;2023-07-30T08:25:57;21.30;99.90
42099;DHT22;27758;55.900;8.516;2023-07-30T08:28:23;21.50;99.90
42099;DHT22;27758;55.900;8.516;2023-07-30T08:30:49;21.70;99.90
42099;DHT22;27758;55.900;8.516;2023-07-30T08:33:15;21.80;99.90
42099;DHT22;27758;55.900;8.516;2023-07-30T08:35:40;21.70;99.90
42099;DHT22;27758;55.900;8.516;2023-07-30T08:38:06;21.80;99.90
42099;DHT22;27758;55.900;8.516;2023-07-30T08:40:32;21.80;99.90
42099;DHT22;27758;55.900;8.516;2023-07-30T08:42:58;22.00;99.90
42099;DHT22;27758;55.900;8.516;2023-07-30T08:45:24;22.10;99.90
42099;DHT22;27758;55.900;8.516;2023-07-30T08:47:49;21.90;99.90
42099;DHT22;27758;55.900;8.516;2023-07-30T08:50:15;21.90;99.90
42099;DHT22;27758;55.900;8.516;2023-07-30T08:52:41;22.40;99.90
42099;DHT22;27758;55.900;8.516;2023-07-30T08:55:08;22.40;99.90
42099;DHT22;27758;55.900;8.516;2023-07-30T08:57:37;22.30;99.90
42099;DHT22;27758;55.900;8.516;2023-07-30T09:00:05;22.10;99.90
42099;DHT22;27758;55.900;8.516;2023-07-30T09:02:41;21.80;99.90
42099;DHT22;27758;55.900;8.516;2023-07-30T09:05:09;21.80;99.90
42099;DHT22;27758;55.900;8.516;2023-07-30T09:07:34;22.30;99.90
42099;DHT22;27758;55.900;8.516;2023-07-30T09:10:00;22.60;99.90
42099;DHT22;27758;55.900;8.516;2023-07-30T09:12:36;22.60;99.90
42099;DHT22;27758;55.900;8.516;2023-07-30T09:15:05;22.40;99.90
42099;DHT22;27758;55.900;8.516;2023-07-30T09:17:32;22.20;99.90
42099;DHT22;27758;55.900;8.516;2023-07-30T09:20:05;22.20;99.90
42099;DHT22;27758;55.900;8.516;2023-07-30T09:22:33;22.30;99.90
42099;DHT22;27758;55.900;8.516;2023-07-30T09:25:03;22.40;99.90
42099;DHT22;27758;55.900;8.516;2023-07-30T09:27:29;22.30;99.90
42099;DHT22;27758;55.900;8.516;2023-07-30T09:29:59;22.10;99.90
42099;DHT22;27758;55.900;8.516;2023-07-30T09:32:33;22.40;99.90
42099;DHT22;27758;55.900;8.516;2023-07-30T09:35:04;22.20;99.90
42099;DHT22;27758;55.900;8.516;2023-07-30T09:37:33;21.90;99.90
42099;DHT22;27758;55.900;8.516;2023-07-30T09:40:01;22.30;99.90
42099;DHT22;27758;55.900;8.516;2023-07-30T09:42:28;22.60;99.90
42099;DHT22;27758;55.900;8.516;2023-07-30T09:44:58;22.10;99.90
42099;DHT22;27758;55.900;8.516;2023-07-30T09:47:26;21.70;99.90
42099;DHT22;27758;55.900;8.516;2023-07-30T09:49:52;21.50;99.90
42099;DHT22;27758;55.900;8.516;2023-07-30T09:52:19;21.90;99.90
42099;DHT22;27758;55.900;8.516;2023-07-30T09:54:45;22.00;99.90
42099;DHT22;27758;55.900;8.516;2023-07-30T09:57:12;21.90;99.90
42099;DHT22;27758;55.900;8.516;2023-07-30T09:59:37;21.90;99.90
42099;DHT22;27758;55.900;8.516;2023-07-30T10:02:05;21.60;99.90
42099;DHT22;27758;55.900;8.516;2023-07-30T10:04:32;21.20;99.90
42099;DHT22;27758;55.900;8.516;2023-07-30T10:07:01;20.90;99.90
42099;DHT22;27758;55.900;8.516;2023-07-30T10:09:30;20.50;99.90
42099;DHT22;27758;55.900;8.516;2023-07-30T10:11:59;20.20;99.90
42099;DHT22;27758;55.900;8.516;2023-07-30T10:14:26;20.00;99.90
42099;DHT22;27758;55.900;8.516;2023-07-30T10:16:54;19.80;99.90
42099;DHT22;27758;55.900;8.516;2023-07-30T10:19:25;20.10;99.90
42099;DHT22;27758;55.900;8.516;2023-07-30T10:21:51;20.30;99.90
42099;DHT22;27758;55.900;8.516;2023-07-30T10:24:17;20.30;99.90
42099;DHT22;27758;55.900;8.516;2023-07-30T10:26:42;20.00;99.90
42099;DHT22;27758;55.900;8.516;2023-07-30T10:29:20;20.00;99.90
42099;DHT22;27758;55.900;8.516;2023-07-30T10:31:55;19.90;99.90
42099;DHT22;27758;55.900;8.516;2023-07-30T10:34:22;19.70;99.90
42099;DHT22;27758;55.900;8.516;2023-07-30T10:36:51;19.30;99.90
42099;DHT22;27758;55.900;8.516;2023-07-30T10:41:45;19.30;99.90
42099;DHT22;27758;55.900;8.516;2023-07-30T10:44:24;19.90;99.90
42099;DHT22;27758;55.900;8.516;2023-07-30T10:46:50;20.80;99.90
42099;DHT22;27758;55.900;8.516;2023-07-30T10:49:16;21.30;99.90
42099;DHT22;27758;55.900;8.516;2023-07-30T10:51:42;21.20;99.90
42099;DHT22;27758;55.900;8.516;2023-07-30T10:54:08;21.40;99.90
42099;DHT22;27758;55.900;8.516;2023-07-30T10:56:37;21.60;99.90
42099;DHT22;27758;55.900;8.516;2023-07-30T10:59:07;21.50;99.90
42099;DHT22;27758;55.900;8.516;2023-07-30T11:01:39;21.40;99.90
42099;DHT22;27758;55.900;8.516;2023-07-30T11:04:14;21.50;99.90
42099;DHT22;27758;55.900;8.516;2023-07-30T11:06:45;21.90;99.90
42099;DHT22;27758;55.900;8.516;2023-07-30T11:09:25;21.90;99.90
42099;DHT22;27758;55.900;8.516;2023-07-30T11:11:53;21.40;99.90
42099;DHT22;27758;55.900;8.516;2023-07-30T11:14:20;21.10;99.90
42099;DHT22;27758;55.900;8.516;2023-07-30T11:16:56;21.00;99.90
42099;DHT22;27758;55.900;8.516;2023-07-30T11:19:29;21.00;99.90
42099;DHT22;27758;55.900;8.516;2023-07-30T11:21:56;20.90;99.90
42099;DHT22;27758;55.900;8.516;2023-07-30T11:24:35;20.90;99.90
42099;DHT22;27758;55.900;8.516;2023-07-30T11:27:01;21.00;99.90
42099;DHT22;27758;55.900;8.516;2023-07-30T11:29:28;20.90;99.90
42099;DHT22;27758;55.900;8.516;2023-07-30T11:31:57;20.90;99.90
42099;DHT22;27758;55.900;8.516;2023-07-30T11:34:23;20.80;99.90
42099;DHT22;27758;55.900;8.516;2023-07-30T11:36:49;20.80;99.90
42099;DHT22;27758;55.900;8.516;2023-07-30T11:39:16;20.90;99.90
42099;DHT22;27758;55.900;8.516;2023-07-30T11:41:42;21.10;99.90
42099;DHT22;27758;55.900;8.516;2023-07-30T11:44:08;21.30;99.90
42099;DHT22;27758;55.900;8.516;2023-07-30T11:46:34;21.40;99.90
42099;DHT22;27758;55.900;8.516;2023-07-30T11:49:13;21.40;99.90
42099;DHT22;27758;55.900;8.516;2023-07-30T11:51:40;21.40;99.90
42099;DHT22;27758;55.900;8.516;2023-07-30T11:54:07;21.60;99.90
42099;DHT22;27758;55.900;8.516;2023-07-30T11:56:34;21.90;99.90
42099;DHT22;27758;55.900;8.516;2023-07-30T11:59:07;22.00;99.90
42099;DHT22;27758;55.900;8.516;2023-07-30T12:01:35;22.10;99.90
42099;DHT22;27758;55.900;8.516;2023-07-30T12:04:03;22.10;99.90
42099;DHT22;27758;55.900;8.516;2023-07-30T12:06:43;22.10;99.90
42099;DHT22;27758;55.900;8.516;2023-07-30T12:09:10;22.50;99.90
42099;DHT22;27758;55.900;8.516;2023-07-30T12:11:55;22.80;99.90
42099;DHT22;27758;55.900;8.516;2023-07-30T12:14:27;23.00;99.90
42099;DHT22;27758;55.900;8.516;2023-07-30T12:16:56;22.90;99.90
42099;DHT22;27758;55.900;8.516;2023-07-30T12:19:22;22.70;99.90
42099;DHT22;27758;55.900;8.516;2023-07-30T12:21:48;22.60;99.90
42099;DHT22;27758;55.900;8.516;2023-07-30T12:24:13;21.90;99.90
42099;DHT22;27758;55.900;8.516;2023-07-30T12:26:40;21.50;99.90
42099;DHT22;27758;55.900;8.516;2023-07-30T12:29:06;21.20;99.90
42099;DHT22;27758;55.900;8.516;2023-07-30T12:31:32;21.00;99.90
42099;DHT22;27758;55.900;8.516;2023-07-30T12:33:58;20.70;99.90
42099;DHT22;27758;55.900;8.516;2023-07-30T12:36:23;20.60;99.90
42099;DHT22;27758;55.900;8.516;2023-07-30T12:38:49;20.50;99.90
42099;DHT22;27758;55.900;8.516;2023-07-30T12:41:17;20.30;99.90
42099;DHT22;27758;55.900;8.516;2023-07-30T12:43:44;20.30;99.90
42099;DHT22;27758;55.900;8.516;2023-07-30T12:46:10;20.20;99.90
42099;DHT22;27758;55.900;8.516;2023-07-30T12:48:35;20.10;99.90
42099;DHT22;27758;55.900;8.516;2023-07-30T12:51:02;20.20;99.90
42099;DHT22;27758;55.900;8.516;2023-07-30T12:53:27;20.50;99.90
42099;DHT22;27758;55.900;8.516;2023-07-30T12:55:53;20.90;99.90
42099;DHT22;27758;55.900;8.516;2023-07-30T12:58:19;20.90;99.90
42099;DHT22;27758;55.900;8.516;2023-07-30T13:00:44;20.80;99.90
42099;DHT22;27758;55.900;8.516;2023-07-30T13:03:10;20.40;99.90
42099;DHT22;27758;55.900;8.516;2023-07-30T13:05:36;20.20;99.90
42099;DHT22;27758;55.900;8.516;2023-07-30T13:08:03;20.10;99.90
42099;DHT22;27758;55.900;8.516;2023-07-30T13:10:29;20.00;99.90
42099;DHT22;27758;55.900;8.516;2023-07-30T13:12:54;20.00;99.90
42099;DHT22;27758;55.900;8.516;2023-07-30T13:15:20;19.80;99.90
42099;DHT22;27758;55.900;8.516;2023-07-30T13:17:46;19.80;99.90
42099;DHT22;27758;55.900;8.516;2023-07-30T13:20:12;19.60;99.90
42099;DHT22;27758;55.900;8.516;2023-07-30T13:22:37;19.60;99.90
42099;DHT22;27758;55.900;8.516;2023-07-30T13:25:03;19.50;99.90
42099;DHT22;27758;55.900;8.516;2023-07-30T13:27:29;19.30;99.90
42099;DHT22;27758;55.900;8.516;2023-07-30T13:29:55;19.10;99.90
42099;DHT22;27758;55.900;8.516;2023-07-30T13:32:21;18.90;99.90
42099;DHT22;27758;55.900;8.516;2023-07-30T13:34:47;18.80;99.90
42099;DHT22;27758;55.900;8.516;2023-07-30T13:37:12;18.60;99.90
42099;DHT22;27758;55.900;8.516;2023-07-30T13:39:39;18.50;99.90
42099;DHT22;27758;55.900;8.516;2023-07-30T13:42:07;18.40;99.90
42099;DHT22;27758;55.900;8.516;2023-07-30T13:44:33;18.40;99.90
42099;DHT22;27758;55.900;8.516;2023-07-30T13:46:59;18.30;99.90
42099;DHT22;27758;55.900;8.516;2023-07-30T13:49:24;18.30;99.90
42099;DHT22;27758;55.900;8.516;2023-07-30T13:51:50;18.30;99.90
42099;DHT22;27758;55.900;8.516;2023-07-30T13:54:16;18.30;99.90
42099;DHT22;27758;55.900;8.516;2023-07-30T13:56:42;18.20;99.90
42099;DHT22;27758;55.900;8.516;2023-07-30T13:59:07;18.20;99.90
42099;DHT22;27758;55.900;8.516;2023-07-30T14:01:33;18.10;99.90
42099;DHT22;27758;55.900;8.516;2023-07-30T14:03:59;18.10;99.90
42099;DHT22;27758;55.900;8.516;2023-07-30T14:06:24;18.00;99.90
42099;DHT22;27758;55.900;8.516;2023-07-30T14:08:50;18.00;99.90
42099;DHT22;27758;55.900;8.516;2023-07-30T14:11:16;17.80;99.90
42099;DHT22;27758;55.900;8.516;2023-07-30T14:13:41;17.40;99.90
42099;DHT22;27758;55.900;8.516;2023-07-30T14:16:07;17.00;99.90
42099;DHT22;27758;55.900;8.516;2023-07-30T14:18:33;16.70;99.90
42099;DHT22;27758;55.900;8.516;2023-07-30T14:20:59;16.50;99.90
42099;DHT22;27758;55.900;8.516;2023-07-30T14:23:25;16.30;99.90
42099;DHT22;27758;55.900;8.516;2023-07-30T14:25:51;16.30;99.90
42099;DHT22;27758;55.900;8.516;2023-07-30T14:28:16;16.20;99.90
42099;DHT22;27758;55.900;8.516;2023-07-30T14:30:42;16.00;99.90
42099;DHT22;27758;55.900;8.516;2023-07-30T14:33:10;15.80;99.90
42099;DHT22;27758;55.900;8.516;2023-07-30T14:35:36;15.60;99.90
42099;DHT22;27758;55.900;8.516;2023-07-30T14:38:04;15.50;99.90
42099;DHT22;27758;55.900;8.516;2023-07-30T14:40:30;15.60;99.90
42099;DHT22;27758;55.900;8.516;2023-07-30T14:42:56;15.60;99.90
42099;DHT22;27758;55.900;8.516;2023-07-30T14:45:22;15.70;99.90
42099;DHT22;27758;55.900;8.516;2023-07-30T14:47:47;15.80;99.90
42099;DHT22;27758;55.900;8.516;2023-07-30T14:50:13;16.00;99.90
42099;DHT22;27758;55.900;8.516;2023-07-30T14:52:39;16.10;99.90
42099;DHT22;27758;55.900;8.516;2023-07-30T14:55:05;16.20;99.90
42099;DHT22;27758;55.900;8.516;2023-07-30T14:57:31;16.40;99.90
42099;DHT22;27758;55.900;8.516;2023-07-30T14:59:58;16.50;99.90
42099;DHT22;27758;55.900;8.516;2023-07-30T15:02:26;16.70;99.90
42099;DHT22;27758;55.900;8.516;2023-07-30T15:04:53;16.80;99.90
42099;DHT22;27758;55.900;8.516;2023-07-30T15:07:19;16.80;99.90
42099;DHT22;27758;55.900;8.516;2023-07-30T15:09:45;16.90;99.90
42099;DHT22;27758;55.900;8.516;2023-07-30T15:12:13;17.10;99.90
42099;DHT22;27758;55.900;8.516;2023-07-30T15:14:40;17.20;99.90
42099;DHT22;27758;55.900;8.516;2023-07-30T15:17:06;17.30;99.90
42099;DHT22;27758;55.900;8.516;2023-07-30T15:19:33;17.40;99.90
42099;DHT22;27758;55.900;8.516;2023-07-30T15:21:59;17.50;99.90
42099;DHT22;27758;55.900;8.516;2023-07-30T15:24:24;17.40;99.90
42099;DHT22;27758;55.900;8.516;2023-07-30T15:26:50;17.50;99.90
42099;DHT22;27758;55.900;8.516;2023-07-30T15:29:16;17.40;99.90